createdAt,value
2018-08-11T00:08:56.888Z,19.02
2018-08-11T00:18:57.003Z,19.06
2018-08-11T00:28:56.902Z,19.11
2018-08-11T00:38:56.873Z,19.25
2018-08-11T00:48:56.919Z,19.35
2018-08-11T00:58:56.874Z,19.17
2018-08-11T01:08:56.975Z,18.49
2018-08-11T01:18:57.006Z,18.02
2018-08-11T01:28:56.883Z,16.98
2018-08-11T01:38:56.944Z,16.34
2018-08-11T01:48:56.872Z,15.86
2018-08-11T01:58:56.996Z,15.56
2018-08-11T02:08:56.913Z,15.35
2018-08-11T02:18:56.871Z,15.12
2018-08-11T02:28:56.974Z,14.87
2018-08-11T02:38:56.914Z,14.81
2018-08-11T02:48:56.860Z,14.56
2018-08-11T02:58:56.975Z,14.37
2018-08-11T03:08:56.918Z,14.47
2018-08-11T03:18:57.022Z,14.46
2018-08-11T03:28:56.946Z,14.31
2018-08-11T03:38:57.006Z,14.14
2018-08-11T03:48:56.950Z,14.04
2018-08-11T03:58:56.888Z,13.98
2018-08-11T04:08:56.954Z,13.96
2018-08-11T04:18:56.909Z,13.89
2018-08-11T04:28:56.975Z,14.17
2018-08-11T04:38:56.947Z,14.1
2018-08-11T04:48:57.618Z,14.14
2018-08-11T04:58:56.961Z,14.38
2018-08-11T05:08:57.030Z,14.62
2018-08-11T05:18:56.998Z,14.84
2018-08-11T05:28:57.060Z,15.11
2018-08-11T05:38:57.031Z,15.12
2018-08-11T05:48:57.075Z,15.39
2018-08-11T05:58:57.049Z,15.59
2018-08-11T06:08:57.134Z,15.86
2018-08-11T06:18:57.067Z,16.25
2018-08-11T06:28:57.125Z,16.55
2018-08-11T06:38:57.107Z,17.3
2018-08-11T06:48:57.175Z,17.07
2018-08-11T06:58:57.118Z,17
2018-08-11T07:08:57.157Z,17.23
2018-08-11T07:18:57.162Z,18.44
2018-08-11T07:28:57.138Z,22.07
2018-08-11T07:38:57.797Z,23.85
2018-08-11T07:48:57.136Z,23.94
2018-08-11T07:58:57.195Z,23.34
2018-08-11T08:08:57.161Z,23.86
2018-08-11T08:18:57.241Z,23.7
2018-08-11T08:28:59.472Z,24.2
2018-08-11T08:38:57.155Z,23.65
2018-08-11T08:48:57.173Z,21.51
2018-08-11T08:58:57.819Z,20.24
2018-08-11T09:08:58.333Z,20.62
2018-08-11T09:18:57.783Z,20.79
2018-08-11T09:28:58.282Z,21.36
2018-08-11T09:38:57.174Z,21.14
2018-08-11T09:48:57.155Z,20.84
2018-08-11T09:58:57.246Z,20.69
2018-08-11T10:08:57.188Z,21.02
2018-08-11T10:19:02.124Z,20.38
2018-08-11T10:28:57.148Z,21.13
2018-08-11T10:38:57.220Z,22.28
2018-08-11T10:48:57.294Z,21.66
2018-08-11T10:59:03.875Z,21.32
2018-08-11T11:08:57.302Z,21.79
2018-08-11T11:18:57.324Z,22.41
2018-08-11T11:28:58.534Z,21.46
2018-08-11T11:38:58.250Z,21.9
2018-08-11T11:48:57.181Z,22.47
2018-08-11T11:58:57.161Z,23.12
2018-08-11T12:08:57.320Z,22.97
2018-08-11T12:18:57.724Z,23.02
2018-08-11T12:28:57.176Z,23.09
2018-08-11T12:38:57.243Z,22.65
2018-08-11T12:48:57.203Z,23.08
2018-08-11T12:58:57.766Z,24.13
2018-08-11T13:08:57.715Z,24.04
2018-08-11T13:18:57.351Z,24.05
2018-08-11T13:28:57.226Z,24.34
2018-08-11T13:38:57.271Z,23.72
2018-08-11T13:48:57.233Z,23.92
2018-08-11T13:58:57.268Z,23.57
2018-08-11T14:08:57.249Z,23.52
2018-08-11T14:18:57.193Z,23.77
2018-08-11T14:28:57.273Z,23.82
2018-08-11T14:38:57.208Z,24.13
2018-08-11T14:48:57.339Z,24.12
2018-08-11T14:58:57.232Z,24.22
2018-08-11T15:08:57.181Z,23.97
2018-08-11T15:18:57.176Z,23.76
2018-08-11T15:28:57.213Z,23.64
2018-08-11T15:38:57.168Z,22.82
2018-08-11T15:48:57.341Z,23.42
2018-08-11T15:58:57.164Z,23.49
2018-08-11T16:08:57.179Z,23.29
2018-08-11T16:18:57.211Z,22.89
2018-08-11T16:28:57.198Z,22.86
2018-08-11T16:38:57.219Z,22.8
2018-08-11T16:48:57.324Z,22.62
2018-08-11T16:58:57.443Z,22.2
2018-08-11T17:08:57.194Z,22.06
2018-08-11T17:18:57.229Z,21.95
2018-08-11T17:28:57.289Z,21.87
2018-08-11T17:38:57.251Z,21.72
2018-08-11T17:48:57.296Z,21.3
2018-08-11T17:58:57.366Z,21.05
2018-08-11T18:08:57.225Z,20.98
2018-08-11T18:18:57.259Z,20.58
2018-08-11T18:28:57.210Z,20.34
2018-08-11T18:38:57.241Z,19.7
2018-08-11T18:48:57.231Z,19.42
2018-08-11T18:58:57.218Z,18.98
2018-08-11T19:08:57.594Z,18.64
2018-08-11T19:18:57.416Z,18.15
2018-08-11T19:28:58.191Z,17.62
2018-08-11T19:39:01.158Z,17.23
2018-08-11T19:48:58.337Z,16.86
2018-08-11T19:58:58.227Z,16.48
2018-08-11T20:08:57.288Z,16.27
2018-08-11T20:18:57.383Z,15.88
2018-08-11T20:28:57.273Z,15.68
2018-08-11T20:38:57.273Z,15.42
2018-08-11T20:48:57.298Z,15.2
2018-08-11T20:58:57.208Z,14.94
2018-08-11T21:08:57.232Z,14.8
2018-08-11T21:18:57.226Z,14.71
2018-08-11T21:28:57.194Z,14.64
2018-08-11T21:38:58.370Z,14.37
2018-08-11T21:48:57.245Z,14.31
2018-08-11T21:58:57.239Z,14.13
2018-08-11T22:08:57.229Z,14.12
2018-08-11T22:18:57.236Z,14.13
2018-08-11T22:28:57.236Z,13.99
2018-08-11T22:38:57.302Z,13.92
2018-08-11T22:48:58.227Z,13.96
2018-08-11T22:58:57.304Z,13.81
2018-08-11T23:08:57.207Z,13.81
2018-08-11T23:18:57.282Z,13.69
2018-08-11T23:28:57.249Z,13.8
2018-08-11T23:38:57.204Z,13.51
2018-08-11T23:48:57.201Z,13.21
2018-08-11T23:58:57.189Z,13.18
